Aviation Digital Data Service (ADDS)

Output produced by METARs form (2044 UTC 01 December 2021)
found at http://aviationweather.gov/metar/data/
 
KARA 011728Z 0118/0218 21007KT P6SM SKC 
     FM020200 22002KT P6SM SKC 
     FM020500 00000KT 4SM BR SKC 
     FM020700 00000KT 1/2SM FG BKN003 
     FM021400 22002KT 2SM BR FEW100 
     FM021500 22005KT P6SM SKC